sensor_id;sensor_type;location;lat;lon;timestamp;P1;durP1;ratioP1;P2;durP2;ratioP2
16436;SDS011;8328;52.206;21.006;2022-10-31T00:01:37;68.80;;;36.07;;
16436;SDS011;8328;52.206;21.006;2022-10-31T00:04:03;69.70;;;35.97;;
16436;SDS011;8328;52.206;21.006;2022-10-31T00:06:30;66.40;;;34.72;;
16436;SDS011;8328;52.206;21.006;2022-10-31T00:08:57;71.57;;;35.90;;
16436;SDS011;8328;52.206;21.006;2022-10-31T00:11:27;68.95;;;35.40;;
16436;SDS011;8328;52.206;21.006;2022-10-31T00:13:53;69.72;;;36.13;;
16436;SDS011;8328;52.206;21.006;2022-10-31T00:16:21;65.60;;;35.03;;
16436;SDS011;8328;52.206;21.006;2022-10-31T00:18:49;67.65;;;36.25;;
16436;SDS011;8328;52.206;21.006;2022-10-31T00:21:20;65.68;;;34.97;;
16436;SDS011;8328;52.206;21.006;2022-10-31T00:23:46;66.25;;;35.25;;
16436;SDS011;8328;52.206;21.006;2022-10-31T00:26:12;64.50;;;34.65;;
16436;SDS011;8328;52.206;21.006;2022-10-31T00:28:38;64.63;;;35.80;;
16436;SDS011;8328;52.206;21.006;2022-10-31T00:31:04;65.13;;;35.13;;
16436;SDS011;8328;52.206;21.006;2022-10-31T00:33:33;67.65;;;36.58;;
16436;SDS011;8328;52.206;21.006;2022-10-31T00:36:01;68.90;;;37.15;;
16436;SDS011;8328;52.206;21.006;2022-10-31T00:38:27;66.38;;;36.17;;
16436;SDS011;8328;52.206;21.006;2022-10-31T00:40:53;71.43;;;39.20;;
16436;SDS011;8328;52.206;21.006;2022-10-31T00:43:19;63.70;;;34.73;;
16436;SDS011;8328;52.206;21.006;2022-10-31T00:45:45;64.57;;;34.97;;
16436;SDS011;8328;52.206;21.006;2022-10-31T00:48:10;66.13;;;35.60;;
16436;SDS011;8328;52.206;21.006;2022-10-31T00:50:36;62.93;;;34.43;;
16436;SDS011;8328;52.206;21.006;2022-10-31T00:53:02;65.07;;;34.97;;
16436;SDS011;8328;52.206;21.006;2022-10-31T00:55:29;70.10;;;38.53;;
16436;SDS011;8328;52.206;21.006;2022-10-31T00:57:55;64.83;;;35.13;;
16436;SDS011;8328;52.206;21.006;2022-10-31T01:00:21;68.43;;;36.67;;
16436;SDS011;8328;52.206;21.006;2022-10-31T01:02:47;65.43;;;34.92;;
16436;SDS011;8328;52.206;21.006;2022-10-31T01:05:13;68.45;;;36.47;;
16436;SDS011;8328;52.206;21.006;2022-10-31T01:07:40;69.13;;;37.03;;
16436;SDS011;8328;52.206;21.006;2022-10-31T01:10:06;63.03;;;34.00;;
16436;SDS011;8328;52.206;21.006;2022-10-31T01:12:37;69.20;;;36.75;;
16436;SDS011;8328;52.206;21.006;2022-10-31T01:15:03;68.47;;;36.30;;
16436;SDS011;8328;52.206;21.006;2022-10-31T01:17:29;69.45;;;36.60;;
16436;SDS011;8328;52.206;21.006;2022-10-31T01:19:55;65.80;;;35.43;;
16436;SDS011;8328;52.206;21.006;2022-10-31T01:22:21;66.20;;;35.20;;
16436;SDS011;8328;52.206;21.006;2022-10-31T01:24:47;67.17;;;35.23;;
16436;SDS011;8328;52.206;21.006;2022-10-31T01:27:12;64.23;;;34.23;;
16436;SDS011;8328;52.206;21.006;2022-10-31T01:29:38;68.27;;;36.43;;
16436;SDS011;8328;52.206;21.006;2022-10-31T01:32:04;67.07;;;35.33;;
16436;SDS011;8328;52.206;21.006;2022-10-31T01:34:30;67.17;;;35.13;;
16436;SDS011;8328;52.206;21.006;2022-10-31T01:36:56;65.53;;;35.20;;
16436;SDS011;8328;52.206;21.006;2022-10-31T01:39:22;64.63;;;35.20;;
16436;SDS011;8328;52.206;21.006;2022-10-31T01:41:49;64.60;;;34.55;;
16436;SDS011;8328;52.206;21.006;2022-10-31T01:46:49;64.13;;;34.37;;
16436;SDS011;8328;52.206;21.006;2022-10-31T01:49:36;66.20;;;36.38;;
16436;SDS011;8328;52.206;21.006;2022-10-31T01:54:47;65.53;;;35.47;;
16436;SDS011;8328;52.206;21.006;2022-10-31T01:57:16;63.63;;;34.58;;
16436;SDS011;8328;52.206;21.006;2022-10-31T01:59:47;66.72;;;36.00;;
16436;SDS011;8328;52.206;21.006;2022-10-31T02:02:16;64.32;;;34.70;;
16436;SDS011;8328;52.206;21.006;2022-10-31T02:04:43;68.40;;;36.15;;
16436;SDS011;8328;52.206;21.006;2022-10-31T02:07:54;63.92;;;34.55;;
16436;SDS011;8328;52.206;21.006;2022-10-31T02:10:13;63.25;;;34.17;;
16436;SDS011;8328;52.206;21.006;2022-10-31T02:12:40;65.80;;;35.60;;
16436;SDS011;8328;52.206;21.006;2022-10-31T02:15:07;67.47;;;36.30;;
16436;SDS011;8328;52.206;21.006;2022-10-31T02:17:33;67.07;;;36.20;;
16436;SDS011;8328;52.206;21.006;2022-10-31T02:20:16;66.60;;;35.63;;
16436;SDS011;8328;52.206;21.006;2022-10-31T02:36:55;69.13;;;35.63;;
16436;SDS011;8328;52.206;21.006;2022-10-31T02:47:14;69.53;;;36.33;;
16436;SDS011;8328;52.206;21.006;2022-10-31T02:54:48;66.03;;;34.53;;
16436;SDS011;8328;52.206;21.006;2022-10-31T02:57:15;68.80;;;35.80;;
16436;SDS011;8328;52.206;21.006;2022-10-31T02:59:47;66.82;;;34.97;;
16436;SDS011;8328;52.206;21.006;2022-10-31T03:02:20;70.00;;;35.17;;
16436;SDS011;8328;52.206;21.006;2022-10-31T03:07:51;71.15;;;36.25;;
16436;SDS011;8328;52.206;21.006;2022-10-31T03:10:52;69.68;;;35.92;;
16436;SDS011;8328;52.206;21.006;2022-10-31T03:16:04;71.10;;;36.00;;
16436;SDS011;8328;52.206;21.006;2022-10-31T03:21:22;69.40;;;35.08;;
16436;SDS011;8328;52.206;21.006;2022-10-31T03:24:09;74.10;;;36.58;;
16436;SDS011;8328;52.206;21.006;2022-10-31T03:26:37;73.07;;;36.85;;
16436;SDS011;8328;52.206;21.006;2022-10-31T03:29:08;72.05;;;36.90;;
16436;SDS011;8328;52.206;21.006;2022-10-31T03:31:37;70.90;;;35.95;;
16436;SDS011;8328;52.206;21.006;2022-10-31T03:34:11;72.05;;;36.58;;
16436;SDS011;8328;52.206;21.006;2022-10-31T03:36:38;69.13;;;34.75;;
16436;SDS011;8328;52.206;21.006;2022-10-31T03:39:07;73.65;;;36.65;;
16436;SDS011;8328;52.206;21.006;2022-10-31T03:41:38;75.53;;;37.40;;
16436;SDS011;8328;52.206;21.006;2022-10-31T03:44:08;72.35;;;36.30;;
16436;SDS011;8328;52.206;21.006;2022-10-31T03:46:38;72.03;;;35.42;;
16436;SDS011;8328;52.206;21.006;2022-10-31T03:49:06;72.03;;;36.33;;
16436;SDS011;8328;52.206;21.006;2022-10-31T03:54:14;74.88;;;35.95;;
16436;SDS011;8328;52.206;21.006;2022-10-31T03:56:49;72.63;;;35.85;;
16436;SDS011;8328;52.206;21.006;2022-10-31T03:59:39;72.18;;;35.78;;
16436;SDS011;8328;52.206;21.006;2022-10-31T04:02:13;74.32;;;36.28;;
16436;SDS011;8328;52.206;21.006;2022-10-31T04:04:42;75.57;;;37.55;;
16436;SDS011;8328;52.206;21.006;2022-10-31T04:07:09;71.93;;;35.30;;
16436;SDS011;8328;52.206;21.006;2022-10-31T04:09:36;73.50;;;36.40;;
16436;SDS011;8328;52.206;21.006;2022-10-31T04:12:06;72.40;;;35.97;;
16436;SDS011;8328;52.206;21.006;2022-10-31T04:14:36;69.82;;;34.63;;
16436;SDS011;8328;52.206;21.006;2022-10-31T04:17:05;70.20;;;35.08;;
16436;SDS011;8328;52.206;21.006;2022-10-31T04:19:35;74.72;;;36.95;;
16436;SDS011;8328;52.206;21.006;2022-10-31T04:22:01;74.17;;;38.53;;
16436;SDS011;8328;52.206;21.006;2022-10-31T04:24:27;70.35;;;35.38;;
16436;SDS011;8328;52.206;21.006;2022-10-31T04:26:53;68.90;;;34.97;;
16436;SDS011;8328;52.206;21.006;2022-10-31T04:29:19;70.60;;;35.73;;
16436;SDS011;8328;52.206;21.006;2022-10-31T04:31:44;68.87;;;35.47;;
16436;SDS011;8328;52.206;21.006;2022-10-31T04:34:10;70.17;;;36.17;;
16436;SDS011;8328;52.206;21.006;2022-10-31T04:36:36;69.20;;;35.60;;
16436;SDS011;8328;52.206;21.006;2022-10-31T04:39:02;71.43;;;36.70;;
16436;SDS011;8328;52.206;21.006;2022-10-31T04:41:28;68.20;;;34.77;;
16436;SDS011;8328;52.206;21.006;2022-10-31T04:43:54;68.37;;;35.20;;
16436;SDS011;8328;52.206;21.006;2022-10-31T04:46:19;66.60;;;34.83;;
16436;SDS011;8328;52.206;21.006;2022-10-31T04:48:45;66.00;;;34.38;;
16436;SDS011;8328;52.206;21.006;2022-10-31T04:51:11;70.10;;;34.67;;
16436;SDS011;8328;52.206;21.006;2022-10-31T04:53:37;66.57;;;34.60;;
16436;SDS011;8328;52.206;21.006;2022-10-31T04:56:03;67.80;;;35.17;;
16436;SDS011;8328;52.206;21.006;2022-10-31T04:58:29;70.97;;;35.58;;
16436;SDS011;8328;52.206;21.006;2022-10-31T05:00:55;69.03;;;34.50;;
16436;SDS011;8328;52.206;21.006;2022-10-31T05:03:21;63.72;;;33.92;;
16436;SDS011;8328;52.206;21.006;2022-10-31T05:05:48;64.55;;;35.53;;
16436;SDS011;8328;52.206;21.006;2022-10-31T05:08:14;60.85;;;33.45;;
16436;SDS011;8328;52.206;21.006;2022-10-31T05:10:40;63.92;;;35.20;;
16436;SDS011;8328;52.206;21.006;2022-10-31T05:13:06;64.63;;;35.57;;
16436;SDS011;8328;52.206;21.006;2022-10-31T05:15:32;61.88;;;34.33;;
16436;SDS011;8328;52.206;21.006;2022-10-31T05:17:58;60.70;;;33.30;;
16436;SDS011;8328;52.206;21.006;2022-10-31T05:20:26;64.10;;;34.47;;
16436;SDS011;8328;52.206;21.006;2022-10-31T05:22:54;67.45;;;36.08;;
16436;SDS011;8328;52.206;21.006;2022-10-31T05:25:22;63.08;;;34.50;;
16436;SDS011;8328;52.206;21.006;2022-10-31T05:27:50;64.03;;;34.30;;
16436;SDS011;8328;52.206;21.006;2022-10-31T05:30:18;64.80;;;34.70;;
16436;SDS011;8328;52.206;21.006;2022-10-31T05:32:50;63.40;;;35.08;;
16436;SDS011;8328;52.206;21.006;2022-10-31T05:35:17;61.58;;;34.00;;
16436;SDS011;8328;52.206;21.006;2022-10-31T05:37:44;62.33;;;34.35;;
16436;SDS011;8328;52.206;21.006;2022-10-31T05:40:10;66.33;;;35.63;;
16436;SDS011;8328;52.206;21.006;2022-10-31T05:42:38;66.88;;;36.17;;
16436;SDS011;8328;52.206;21.006;2022-10-31T05:45:05;65.03;;;35.33;;
16436;SDS011;8328;52.206;21.006;2022-10-31T05:47:32;63.30;;;35.08;;
16436;SDS011;8328;52.206;21.006;2022-10-31T05:49:58;65.10;;;35.87;;
16436;SDS011;8328;52.206;21.006;2022-10-31T05:52:24;62.70;;;34.60;;
16436;SDS011;8328;52.206;21.006;2022-10-31T05:54:49;62.00;;;34.10;;
16436;SDS011;8328;52.206;21.006;2022-10-31T05:57:15;64.93;;;35.13;;
16436;SDS011;8328;52.206;21.006;2022-10-31T05:59:42;74.65;;;40.17;;
16436;SDS011;8328;52.206;21.006;2022-10-31T06:02:08;65.17;;;36.37;;
16436;SDS011;8328;52.206;21.006;2022-10-31T06:04:34;61.90;;;34.40;;
16436;SDS011;8328;52.206;21.006;2022-10-31T06:06:59;64.13;;;35.60;;
16436;SDS011;8328;52.206;21.006;2022-10-31T06:09:25;65.67;;;36.53;;
16436;SDS011;8328;52.206;21.006;2022-10-31T06:11:51;68.03;;;38.27;;
16436;SDS011;8328;52.206;21.006;2022-10-31T06:14:17;71.17;;;38.77;;
16436;SDS011;8328;52.206;21.006;2022-10-31T06:16:42;70.13;;;38.13;;
16436;SDS011;8328;52.206;21.006;2022-10-31T06:19:08;73.70;;;37.43;;
16436;SDS011;8328;52.206;21.006;2022-10-31T06:21:34;71.97;;;38.70;;
16436;SDS011;8328;52.206;21.006;2022-10-31T06:24:00;71.60;;;37.03;;
16436;SDS011;8328;52.206;21.006;2022-10-31T06:26:26;74.30;;;38.67;;
16436;SDS011;8328;52.206;21.006;2022-10-31T06:28:51;82.53;;;43.10;;
16436;SDS011;8328;52.206;21.006;2022-10-31T06:31:17;95.20;;;41.07;;
16436;SDS011;8328;52.206;21.006;2022-10-31T06:33:43;73.13;;;37.33;;
16436;SDS011;8328;52.206;21.006;2022-10-31T06:36:09;74.87;;;38.90;;
16436;SDS011;8328;52.206;21.006;2022-10-31T06:38:35;77.45;;;38.30;;
16436;SDS011;8328;52.206;21.006;2022-10-31T06:41:04;78.53;;;38.13;;
16436;SDS011;8328;52.206;21.006;2022-10-31T06:43:30;81.70;;;38.95;;
16436;SDS011;8328;52.206;21.006;2022-10-31T06:45:57;84.75;;;39.95;;
16436;SDS011;8328;52.206;21.006;2022-10-31T06:48:23;81.17;;;39.00;;
16436;SDS011;8328;52.206;21.006;2022-10-31T06:50:49;81.30;;;38.45;;
16436;SDS011;8328;52.206;21.006;2022-10-31T06:53:15;80.57;;;38.27;;
16436;SDS011;8328;52.206;21.006;2022-10-31T06:55:41;82.50;;;38.80;;
16436;SDS011;8328;52.206;21.006;2022-10-31T06:58:08;79.60;;;38.03;;
16436;SDS011;8328;52.206;21.006;2022-10-31T07:00:35;80.07;;;38.40;;
16436;SDS011;8328;52.206;21.006;2022-10-31T07:03:02;78.40;;;37.27;;
16436;SDS011;8328;52.206;21.006;2022-10-31T07:05:30;78.25;;;37.38;;
16436;SDS011;8328;52.206;21.006;2022-10-31T07:07:58;82.32;;;38.45;;
16436;SDS011;8328;52.206;21.006;2022-10-31T07:10:26;80.32;;;37.58;;
16436;SDS011;8328;52.206;21.006;2022-10-31T07:12:56;82.90;;;39.22;;
16436;SDS011;8328;52.206;21.006;2022-10-31T07:15:24;77.32;;;36.83;;
16436;SDS011;8328;52.206;21.006;2022-10-31T07:17:50;79.50;;;37.60;;
16436;SDS011;8328;52.206;21.006;2022-10-31T07:20:16;82.47;;;38.13;;
16436;SDS011;8328;52.206;21.006;2022-10-31T07:22:42;78.10;;;36.45;;
16436;SDS011;8328;52.206;21.006;2022-10-31T07:25:09;77.67;;;36.73;;
16436;SDS011;8328;52.206;21.006;2022-10-31T07:27:36;85.55;;;39.60;;
16436;SDS011;8328;52.206;21.006;2022-10-31T07:30:06;77.88;;;36.30;;
16436;SDS011;8328;52.206;21.006;2022-10-31T07:32:43;78.95;;;37.00;;
16436;SDS011;8328;52.206;21.006;2022-10-31T07:35:12;81.55;;;38.25;;
16436;SDS011;8328;52.206;21.006;2022-10-31T07:37:39;78.45;;;37.03;;
16436;SDS011;8328;52.206;21.006;2022-10-31T07:40:05;77.28;;;36.53;;
16436;SDS011;8328;52.206;21.006;2022-10-31T07:42:39;79.07;;;37.42;;
16436;SDS011;8328;52.206;21.006;2022-10-31T07:45:07;77.50;;;36.88;;
16436;SDS011;8328;52.206;21.006;2022-10-31T07:47:47;92.88;;;38.13;;
16436;SDS011;8328;52.206;21.006;2022-10-31T07:50:16;96.13;;;41.22;;
16436;SDS011;8328;52.206;21.006;2022-10-31T07:52:43;78.65;;;37.55;;
16436;SDS011;8328;52.206;21.006;2022-10-31T07:55:09;79.70;;;37.63;;
16436;SDS011;8328;52.206;21.006;2022-10-31T07:57:36;78.68;;;37.75;;
16436;SDS011;8328;52.206;21.006;2022-10-31T08:00:05;83.13;;;39.45;;
16436;SDS011;8328;52.206;21.006;2022-10-31T08:02:32;80.78;;;38.25;;
16436;SDS011;8328;52.206;21.006;2022-10-31T08:04:59;81.90;;;39.25;;
16436;SDS011;8328;52.206;21.006;2022-10-31T08:07:26;77.80;;;37.33;;
16436;SDS011;8328;52.206;21.006;2022-10-31T08:09:53;79.75;;;38.47;;
16436;SDS011;8328;52.206;21.006;2022-10-31T08:12:19;85.47;;;39.13;;
16436;SDS011;8328;52.206;21.006;2022-10-31T08:14:45;82.47;;;39.60;;
16436;SDS011;8328;52.206;21.006;2022-10-31T08:17:11;79.87;;;38.37;;
16436;SDS011;8328;52.206;21.006;2022-10-31T08:19:36;79.67;;;37.93;;
16436;SDS011;8328;52.206;21.006;2022-10-31T08:22:02;77.80;;;36.97;;
16436;SDS011;8328;52.206;21.006;2022-10-31T08:24:28;76.57;;;36.23;;
16436;SDS011;8328;52.206;21.006;2022-10-31T08:26:54;81.33;;;38.17;;
16436;SDS011;8328;52.206;21.006;2022-10-31T08:29:20;81.27;;;38.83;;
16436;SDS011;8328;52.206;21.006;2022-10-31T08:31:46;81.03;;;39.67;;
16436;SDS011;8328;52.206;21.006;2022-10-31T08:34:11;76.87;;;37.57;;
16436;SDS011;8328;52.206;21.006;2022-10-31T08:36:37;83.67;;;38.87;;
16436;SDS011;8328;52.206;21.006;2022-10-31T08:39:04;80.20;;;38.55;;
16436;SDS011;8328;52.206;21.006;2022-10-31T08:41:30;77.87;;;37.67;;
16436;SDS011;8328;52.206;21.006;2022-10-31T08:43:56;79.53;;;37.95;;
16436;SDS011;8328;52.206;21.006;2022-10-31T08:46:22;87.17;;;40.73;;
16436;SDS011;8328;52.206;21.006;2022-10-31T08:48:48;85.40;;;40.73;;
16436;SDS011;8328;52.206;21.006;2022-10-31T08:51:14;81.70;;;38.47;;
16436;SDS011;8328;52.206;21.006;2022-10-31T08:53:43;81.68;;;38.72;;
16436;SDS011;8328;52.206;21.006;2022-10-31T08:56:09;79.07;;;37.60;;
16436;SDS011;8328;52.206;21.006;2022-10-31T08:58:35;80.60;;;39.30;;
16436;SDS011;8328;52.206;21.006;2022-10-31T09:01:02;77.28;;;37.97;;
16436;SDS011;8328;52.206;21.006;2022-10-31T09:03:29;81.87;;;38.50;;
16436;SDS011;8328;52.206;21.006;2022-10-31T09:06:00;80.30;;;38.28;;
16436;SDS011;8328;52.206;21.006;2022-10-31T09:08:31;85.93;;;41.42;;
16436;SDS011;8328;52.206;21.006;2022-10-31T09:10:59;79.15;;;37.63;;
16436;SDS011;8328;52.206;21.006;2022-10-31T09:13:25;80.95;;;37.75;;
16436;SDS011;8328;52.206;21.006;2022-10-31T09:15:52;84.50;;;39.33;;
16436;SDS011;8328;52.206;21.006;2022-10-31T09:18:19;84.72;;;41.50;;
16436;SDS011;8328;52.206;21.006;2022-10-31T09:20:46;81.68;;;38.75;;
16436;SDS011;8328;52.206;21.006;2022-10-31T09:23:18;79.60;;;37.55;;
16436;SDS011;8328;52.206;21.006;2022-10-31T09:25:46;84.40;;;40.22;;
16436;SDS011;8328;52.206;21.006;2022-10-31T09:28:14;82.35;;;38.47;;
16436;SDS011;8328;52.206;21.006;2022-10-31T09:30:41;86.50;;;40.40;;
16436;SDS011;8328;52.206;21.006;2022-10-31T09:33:11;81.18;;;37.90;;
16436;SDS011;8328;52.206;21.006;2022-10-31T09:35:38;83.10;;;38.65;;
16436;SDS011;8328;52.206;21.006;2022-10-31T09:38:06;82.85;;;38.00;;
16436;SDS011;8328;52.206;21.006;2022-10-31T09:40:40;85.45;;;39.03;;
16436;SDS011;8328;52.206;21.006;2022-10-31T09:46:11;84.07;;;39.15;;
16436;SDS011;8328;52.206;21.006;2022-10-31T09:48:54;80.53;;;37.40;;
16436;SDS011;8328;52.206;21.006;2022-10-31T09:51:49;83.80;;;39.33;;
16436;SDS011;8328;52.206;21.006;2022-10-31T09:57:01;85.88;;;39.67;;
16436;SDS011;8328;52.206;21.006;2022-10-31T09:59:32;86.45;;;39.85;;
16436;SDS011;8328;52.206;21.006;2022-10-31T10:07:17;84.85;;;39.17;;
16436;SDS011;8328;52.206;21.006;2022-10-31T10:09:47;82.70;;;37.38;;
16436;SDS011;8328;52.206;21.006;2022-10-31T10:12:36;86.82;;;39.67;;
16436;SDS011;8328;52.206;21.006;2022-10-31T10:18:20;82.22;;;37.65;;
16436;SDS011;8328;52.206;21.006;2022-10-31T10:23:44;85.78;;;39.97;;
16436;SDS011;8328;52.206;21.006;2022-10-31T10:26:17;88.18;;;40.13;;
16436;SDS011;8328;52.206;21.006;2022-10-31T10:28:47;86.03;;;39.88;;
16436;SDS011;8328;52.206;21.006;2022-10-31T10:31:23;85.68;;;39.63;;
16436;SDS011;8328;52.206;21.006;2022-10-31T10:41:44;85.10;;;38.65;;
16436;SDS011;8328;52.206;21.006;2022-10-31T10:44:32;86.03;;;40.55;;
16436;SDS011;8328;52.206;21.006;2022-10-31T10:47:18;84.20;;;39.30;;
16436;SDS011;8328;52.206;21.006;2022-10-31T10:50:06;81.05;;;37.78;;
16436;SDS011;8328;52.206;21.006;2022-10-31T10:52:47;82.95;;;38.92;;
16436;SDS011;8328;52.206;21.006;2022-10-31T10:58:20;88.82;;;40.88;;
16436;SDS011;8328;52.206;21.006;2022-10-31T11:00:46;90.72;;;42.28;;
16436;SDS011;8328;52.206;21.006;2022-10-31T11:03:14;82.53;;;38.00;;
16436;SDS011;8328;52.206;21.006;2022-10-31T11:05:52;86.05;;;39.63;;
16436;SDS011;8328;52.206;21.006;2022-10-31T11:08:31;84.50;;;39.25;;
16436;SDS011;8328;52.206;21.006;2022-10-31T11:13:30;82.10;;;38.08;;
16436;SDS011;8328;52.206;21.006;2022-10-31T11:16:05;81.97;;;38.28;;
16436;SDS011;8328;52.206;21.006;2022-10-31T11:18:37;82.85;;;38.47;;
16436;SDS011;8328;52.206;21.006;2022-10-31T11:21:29;83.28;;;39.55;;
16436;SDS011;8328;52.206;21.006;2022-10-31T11:24:02;80.45;;;37.80;;
16436;SDS011;8328;52.206;21.006;2022-10-31T11:26:34;80.32;;;37.75;;
16436;SDS011;8328;52.206;21.006;2022-10-31T11:29:03;81.78;;;38.45;;
16436;SDS011;8328;52.206;21.006;2022-10-31T11:31:30;80.53;;;37.92;;
16436;SDS011;8328;52.206;21.006;2022-10-31T11:34:02;78.00;;;37.13;;
16436;SDS011;8328;52.206;21.006;2022-10-31T11:36:34;79.10;;;38.55;;
16436;SDS011;8328;52.206;21.006;2022-10-31T11:39:03;79.65;;;38.33;;
16436;SDS011;8328;52.206;21.006;2022-10-31T11:41:38;81.25;;;39.75;;
16436;SDS011;8328;52.206;21.006;2022-10-31T11:44:12;77.57;;;38.08;;
16436;SDS011;8328;52.206;21.006;2022-10-31T11:46:53;79.68;;;38.60;;
16436;SDS011;8328;52.206;21.006;2022-10-31T11:49:37;80.45;;;38.78;;
16436;SDS011;8328;52.206;21.006;2022-10-31T11:52:05;79.88;;;38.88;;
16436;SDS011;8328;52.206;21.006;2022-10-31T11:54:55;78.40;;;38.45;;
16436;SDS011;8328;52.206;21.006;2022-10-31T11:57:50;79.32;;;39.10;;
16436;SDS011;8328;52.206;21.006;2022-10-31T12:00:22;74.78;;;37.13;;
16436;SDS011;8328;52.206;21.006;2022-10-31T12:02:50;75.22;;;38.30;;
16436;SDS011;8328;52.206;21.006;2022-10-31T12:05:26;74.78;;;38.03;;
16436;SDS011;8328;52.206;21.006;2022-10-31T12:07:58;73.38;;;37.25;;
16436;SDS011;8328;52.206;21.006;2022-10-31T12:10:27;78.88;;;37.80;;
16436;SDS011;8328;52.206;21.006;2022-10-31T12:13:19;76.97;;;38.33;;
16436;SDS011;8328;52.206;21.006;2022-10-31T12:16:09;77.43;;;37.85;;
16436;SDS011;8328;52.206;21.006;2022-10-31T12:18:48;77.75;;;37.60;;
16436;SDS011;8328;52.206;21.006;2022-10-31T12:21:34;94.35;;;37.88;;
16436;SDS011;8328;52.206;21.006;2022-10-31T12:24:23;98.53;;;39.50;;
16436;SDS011;8328;52.206;21.006;2022-10-31T12:26:59;104.70;;;43.13;;
16436;SDS011;8328;52.206;21.006;2022-10-31T12:29:52;100.80;;;40.40;;
16436;SDS011;8328;52.206;21.006;2022-10-31T12:32:40;98.63;;;38.58;;
16436;SDS011;8328;52.206;21.006;2022-10-31T12:45:57;101.85;;;40.92;;
16436;SDS011;8328;52.206;21.006;2022-10-31T12:56:45;94.40;;;39.17;;
16436;SDS011;8328;52.206;21.006;2022-10-31T13:02:30;97.10;;;39.58;;
16436;SDS011;8328;52.206;21.006;2022-10-31T13:05:16;95.43;;;38.67;;
16436;SDS011;8328;52.206;21.006;2022-10-31T13:07:49;98.63;;;39.42;;
16436;SDS011;8328;52.206;21.006;2022-10-31T13:10:32;93.95;;;37.97;;
16436;SDS011;8328;52.206;21.006;2022-10-31T13:13:32;95.93;;;39.95;;
16436;SDS011;8328;52.206;21.006;2022-10-31T13:16:14;94.03;;;38.17;;
16436;SDS011;8328;52.206;21.006;2022-10-31T13:18:51;95.00;;;39.25;;
16436;SDS011;8328;52.206;21.006;2022-10-31T13:21:25;95.82;;;39.47;;
16436;SDS011;8328;52.206;21.006;2022-10-31T13:23:55;104.63;;;44.10;;
16436;SDS011;8328;52.206;21.006;2022-10-31T13:29:38;92.85;;;39.15;;
16436;SDS011;8328;52.206;21.006;2022-10-31T13:32:11;93.15;;;39.28;;
16436;SDS011;8328;52.206;21.006;2022-10-31T13:34:42;91.57;;;38.53;;
16436;SDS011;8328;52.206;21.006;2022-10-31T13:37:28;90.18;;;38.17;;
16436;SDS011;8328;52.206;21.006;2022-10-31T13:42:51;94.43;;;39.38;;
16436;SDS011;8328;52.206;21.006;2022-10-31T13:45:25;84.22;;;39.13;;
16436;SDS011;8328;52.206;21.006;2022-10-31T13:48:35;72.18;;;36.40;;
16436;SDS011;8328;52.206;21.006;2022-10-31T13:50:41;74.70;;;37.30;;
16436;SDS011;8328;52.206;21.006;2022-10-31T13:53:09;75.75;;;37.47;;
16436;SDS011;8328;52.206;21.006;2022-10-31T13:55:41;80.85;;;39.47;;
16436;SDS011;8328;52.206;21.006;2022-10-31T13:58:22;76.32;;;37.35;;
16436;SDS011;8328;52.206;21.006;2022-10-31T14:00:58;80.50;;;39.10;;
16436;SDS011;8328;52.206;21.006;2022-10-31T14:03:39;75.90;;;37.65;;
16436;SDS011;8328;52.206;21.006;2022-10-31T14:06:08;72.93;;;36.90;;
16436;SDS011;8328;52.206;21.006;2022-10-31T14:08:36;71.32;;;36.40;;
16436;SDS011;8328;52.206;21.006;2022-10-31T14:11:06;71.00;;;37.55;;
16436;SDS011;8328;52.206;21.006;2022-10-31T14:13:42;69.05;;;36.80;;
16436;SDS011;8328;52.206;21.006;2022-10-31T14:16:23;70.15;;;37.25;;
16436;SDS011;8328;52.206;21.006;2022-10-31T14:19:02;68.28;;;36.25;;
16436;SDS011;8328;52.206;21.006;2022-10-31T14:21:37;69.38;;;36.58;;
16436;SDS011;8328;52.206;21.006;2022-10-31T14:26:57;69.07;;;37.22;;
16436;SDS011;8328;52.206;21.006;2022-10-31T14:29:29;66.90;;;36.42;;
16436;SDS011;8328;52.206;21.006;2022-10-31T14:32:05;67.05;;;36.75;;
16436;SDS011;8328;52.206;21.006;2022-10-31T14:45:35;44.47;;;28.58;;
16436;SDS011;8328;52.206;21.006;2022-10-31T14:48:17;45.42;;;29.08;;
16436;SDS011;8328;52.206;21.006;2022-10-31T14:51:01;43.05;;;27.95;;
16436;SDS011;8328;52.206;21.006;2022-10-31T14:53:34;41.00;;;26.95;;
16436;SDS011;8328;52.206;21.006;2022-10-31T14:56:09;39.45;;;26.58;;
16436;SDS011;8328;52.206;21.006;2022-10-31T14:58:43;39.92;;;26.85;;
16436;SDS011;8328;52.206;21.006;2022-10-31T15:01:24;40.22;;;27.13;;
16436;SDS011;8328;52.206;21.006;2022-10-31T15:03:52;39.88;;;26.95;;
16436;SDS011;8328;52.206;21.006;2022-10-31T15:06:27;41.97;;;27.90;;
16436;SDS011;8328;52.206;21.006;2022-10-31T15:09:03;40.28;;;27.17;;
16436;SDS011;8328;52.206;21.006;2022-10-31T15:11:29;39.13;;;26.70;;
16436;SDS011;8328;52.206;21.006;2022-10-31T15:14:14;39.60;;;27.00;;
16436;SDS011;8328;52.206;21.006;2022-10-31T15:16:48;39.17;;;26.58;;
16436;SDS011;8328;52.206;21.006;2022-10-31T15:19:16;40.63;;;27.40;;
16436;SDS011;8328;52.206;21.006;2022-10-31T15:21:49;40.13;;;27.02;;
16436;SDS011;8328;52.206;21.006;2022-10-31T15:24:17;43.85;;;28.80;;
16436;SDS011;8328;52.206;21.006;2022-10-31T15:26:45;41.45;;;27.48;;
16436;SDS011;8328;52.206;21.006;2022-10-31T15:29:13;39.88;;;26.88;;
16436;SDS011;8328;52.206;21.006;2022-10-31T15:31:54;44.15;;;28.88;;
16436;SDS011;8328;52.206;21.006;2022-10-31T15:34:44;41.88;;;27.65;;
16436;SDS011;8328;52.206;21.006;2022-10-31T15:37:17;42.60;;;28.05;;
16436;SDS011;8328;52.206;21.006;2022-10-31T15:39:45;45.75;;;30.45;;
16436;SDS011;8328;52.206;21.006;2022-10-31T15:42:17;42.15;;;27.98;;
16436;SDS011;8328;52.206;21.006;2022-10-31T15:44:54;40.80;;;27.08;;
16436;SDS011;8328;52.206;21.006;2022-10-31T15:47:22;41.55;;;27.42;;
16436;SDS011;8328;52.206;21.006;2022-10-31T15:49:53;40.95;;;27.13;;
16436;SDS011;8328;52.206;21.006;2022-10-31T15:57:46;43.80;;;28.77;;
16436;SDS011;8328;52.206;21.006;2022-10-31T16:03:21;43.60;;;28.60;;
16436;SDS011;8328;52.206;21.006;2022-10-31T16:05:52;42.53;;;27.83;;
16436;SDS011;8328;52.206;21.006;2022-10-31T16:08:31;43.00;;;28.05;;
16436;SDS011;8328;52.206;21.006;2022-10-31T16:10:59;40.85;;;27.02;;
16436;SDS011;8328;52.206;21.006;2022-10-31T16:13:51;42.55;;;27.90;;
16436;SDS011;8328;52.206;21.006;2022-10-31T16:16:17;42.53;;;27.88;;
16436;SDS011;8328;52.206;21.006;2022-10-31T16:18:45;42.92;;;28.20;;
16436;SDS011;8328;52.206;21.006;2022-10-31T16:21:11;43.28;;;28.10;;
16436;SDS011;8328;52.206;21.006;2022-10-31T16:23:38;42.22;;;27.48;;
16436;SDS011;8328;52.206;21.006;2022-10-31T16:26:12;43.63;;;28.50;;
16436;SDS011;8328;52.206;21.006;2022-10-31T16:28:49;43.85;;;28.38;;
16436;SDS011;8328;52.206;21.006;2022-10-31T16:31:53;42.30;;;27.58;;
16436;SDS011;8328;52.206;21.006;2022-10-31T16:34:16;46.13;;;29.73;;
16436;SDS011;8328;52.206;21.006;2022-10-31T16:36:45;43.88;;;28.50;;
16436;SDS011;8328;52.206;21.006;2022-10-31T16:39:11;43.97;;;28.33;;
16436;SDS011;8328;52.206;21.006;2022-10-31T16:41:40;46.53;;;29.85;;
16436;SDS011;8328;52.206;21.006;2022-10-31T16:44:26;44.13;;;28.65;;
16436;SDS011;8328;52.206;21.006;2022-10-31T16:49:40;45.13;;;29.27;;